Time;durP1;ratioP1;P1;durP2;ratioP2;P2;SDS_P1;SDS_P2;PMS_P1;PMS_P2;Temp;Humidity;BMP_temperature;BMP_pressure;BME280_temperature;BME280_humidity;BME280_pressure;Samples;Min_cycle;Max_cycle;Signal;HPM_P1;HPM_P2
2022/12/30 00:01:23;;;;;;;27.10;4.82;;;6.80;99.90;;;;;;5060207;28;20036;-69
2022/12/30 00:03:50;;;;;;;20.27;5.57;;;6.90;99.90;;;;;;5059905;28;20059;-74
2022/12/30 00:06:19;;;;;;;24.88;5.13;;;6.80;99.90;;;;;;5060041;28;20031;-72
2022/12/30 00:08:47;;;;;;;21.45;4.55;;;6.80;99.90;;;;;;5058661;28;20469;-69
2022/12/30 00:11:15;;;;;;;24.02;3.95;;;6.80;99.90;;;;;;5058098;28;20033;-73
2022/12/30 00:34:03;;;;;;;24.25;5.20;;;7.00;99.90;;;;;;5057940;28;20063;-69
2022/12/30 00:36:30;;;;;;;18.55;5.15;;;7.00;99.90;;;;;;5058612;28;20056;-70
2022/12/30 00:38:55;;;;;;;24.38;5.00;;;7.00;99.90;;;;;;5058918;28;20029;-70
2022/12/30 00:44:05;;;;;;;15.40;4.95;;;7.10;99.90;;;;;;5058007;28;20370;-69
2022/12/30 00:46:32;;;;;;;26.73;4.78;;;7.00;99.90;;;;;;5058040;28;20029;-71
2022/12/30 00:57:15;;;;;;;26.98;4.80;;;7.10;99.90;;;;;;5057654;28;20040;-71
2022/12/30 00:59:41;;;;;;;23.75;5.05;;;7.10;99.90;;;;;;5057806;28;20078;-71
2022/12/30 01:02:06;;;;;;;22.25;4.38;;;7.10;99.90;;;;;;5058643;28;20490;-68
2022/12/30 01:04:32;;;;;;;26.15;5.20;;;7.20;99.90;;;;;;5058517;28;20052;-71
2022/12/30 01:06:58;;;;;;;24.77;5.32;;;7.20;99.90;;;;;;5058564;28;20488;-69
2022/12/30 01:09:24;;;;;;;25.00;5.00;;;7.20;99.90;;;;;;5041403;28;20104;-71
2022/12/30 01:12:07;;;;;;;25.10;4.97;;;7.20;99.90;;;;;;5058290;28;20057;-71
2022/12/30 01:14:37;;;;;;;29.85;4.88;;;7.20;99.90;;;;;;5057808;28;20028;-71
2022/12/30 01:17:05;;;;;;;22.45;5.00;;;7.20;99.90;;;;;;5058097;28;20025;-71
2022/12/30 01:19:31;;;;;;;25.33;5.07;;;7.30;99.90;;;;;;5058296;28;20021;-71
2022/12/30 01:21:57;;;;;;;27.02;5.47;;;7.30;99.90;;;;;;5029558;28;20140;-72
2022/12/30 01:24:23;;;;;;;17.98;4.47;;;7.30;99.90;;;;;;5039480;28;20072;-72
2022/12/30 01:26:48;;;;;;;21.30;4.55;;;7.30;99.90;;;;;;5039004;28;20040;-71
2022/12/30 01:29:25;;;;;;;23.52;4.63;;;7.30;99.90;;;;;;5038584;28;20026;-71
2022/12/30 01:31:54;;;;;;;19.95;4.60;;;7.30;99.90;;;;;;5039076;28;20041;-72
2022/12/30 01:34:20;;;;;;;16.35;4.47;;;7.30;99.90;;;;;;5020933;28;20022;-70
2022/12/30 01:36:45;;;;;;;27.17;6.55;;;7.30;99.90;;;;;;5039296;28;20028;-70
2022/12/30 01:39:11;;;;;;;18.80;4.80;;;7.30;99.90;;;;;;5039077;28;20026;-71
2022/12/30 01:41:36;;;;;;;21.75;4.20;;;7.30;99.90;;;;;;5021384;28;20025;-71
2022/12/30 01:44:22;;;;;;;14.70;4.35;;;7.30;99.90;;;;;;5020502;28;20061;-70
2022/12/30 01:46:48;;;;;;;21.65;4.47;;;7.30;99.90;;;;;;5038238;28;20040;-68
2022/12/30 01:49:13;;;;;;;19.83;5.07;;;7.30;99.90;;;;;;5039039;28;20029;-71
2022/12/30 01:51:42;;;;;;;18.05;4.80;;;7.30;99.90;;;;;;5020832;28;20029;-71
2022/12/30 01:54:08;;;;;;;24.67;5.43;;;7.30;99.90;;;;;;5038809;28;20053;-74
2022/12/30 01:56:38;;;;;;;18.05;3.50;;;7.30;99.90;;;;;;5038973;28;20037;-70
2022/12/30 01:59:17;;;;;;;25.10;4.95;;;7.30;99.90;;;;;;5020003;28;20018;-73
2022/12/30 02:01:43;;;;;;;25.38;5.18;;;7.30;99.90;;;;;;5038755;28;20434;-72
2022/12/30 02:04:13;;;;;;;17.67;4.15;;;7.30;99.90;;;;;;5038443;28;20026;-72
2022/12/30 02:06:55;;;;;;;28.02;4.55;;;7.30;99.90;;;;;;5038624;28;20029;-71
2022/12/30 02:09:21;;;;;;;25.63;3.45;;;7.30;99.90;;;;;;5042381;28;20095;-73
2022/12/30 02:11:48;;;;;;;29.35;4.65;;;7.40;99.90;;;;;;5042343;28;20120;-71
2022/12/30 02:14:14;;;;;;;25.80;4.60;;;7.40;99.90;;;;;;5041444;28;20033;-70
2022/12/30 02:17:02;;;;;;;18.05;3.80;;;7.40;99.90;;;;;;5042335;28;20754;-74
2022/12/30 02:19:33;;;;;;;31.55;4.63;;;7.40;99.90;;;;;;5024731;28;20025;-71
2022/12/30 02:22:20;;;;;;;27.33;4.18;;;7.40;99.90;;;;;;5052539;28;20057;-70
2022/12/30 02:25:25;;;;;;;17.65;4.05;;;7.40;99.90;;;;;;5059089;28;20029;-72
2022/12/30 02:28:03;;;;;;;17.60;4.55;;;7.40;99.90;;;;;;5059547;28;20456;-70
2022/12/30 02:30:48;;;;;;;26.35;5.60;;;7.40;99.90;;;;;;5055214;28;20076;-70
2022/12/30 02:33:35;;;;;;;22.27;4.07;;;7.30;99.90;;;;;;5060796;28;20025;-72
2022/12/30 02:36:20;;;;;;;21.58;5.55;;;7.40;99.90;;;;;;5060842;28;20021;-72
2022/12/30 02:39:00;;;;;;;30.63;5.30;;;7.40;99.90;;;;;;5042966;28;20056;-70
2022/12/30 02:44:42;;;;;;;24.17;5.18;;;7.30;99.90;;;;;;5051008;28;20036;-70
2022/12/30 02:47:23;;;;;;;26.38;5.88;;;7.30;99.90;;;;;;5060115;28;20023;-70
2022/12/30 02:52:40;;;;;;;27.23;5.50;;;7.30;99.90;;;;;;5060386;28;20164;-70
2022/12/30 02:55:07;;;;;;;19.42;4.85;;;7.30;99.90;;;;;;5044317;28;20017;-70
2022/12/30 02:57:34;;;;;;;21.38;4.80;;;7.20;99.90;;;;;;5055234;28;20025;-70
2022/12/30 03:06:08;;;;;;;17.30;4.68;;;7.10;99.90;;;;;;5059656;28;20413;-69
2022/12/30 03:08:47;;;;;;;29.58;5.03;;;7.10;99.90;;;;;;5059865;28;20037;-68
2022/12/30 03:11:16;;;;;;;21.42;5.47;;;7.00;99.90;;;;;;5059492;28;20041;-69
2022/12/30 03:14:09;;;;;;;24.42;3.95;;;7.00;99.90;;;;;;5059840;28;20043;-68
2022/12/30 03:16:38;;;;;;;22.70;4.75;;;6.90;99.90;;;;;;5059578;28;20389;-70
2022/12/30 03:19:07;;;;;;;21.95;5.10;;;6.90;99.90;;;;;;5039771;28;20029;-69
2022/12/30 03:21:38;;;;;;;28.95;5.72;;;6.80;99.90;;;;;;5056277;28;20113;-72
2022/12/30 03:27:05;;;;;;;32.70;4.90;;;6.80;99.90;;;;;;5060867;28;20036;-70
2022/12/30 03:29:31;;;;;;;31.08;5.30;;;6.70;99.90;;;;;;5060104;28;20029;-71
2022/12/30 03:31:58;;;;;;;24.00;5.40;;;6.70;99.90;;;;;;5060730;28;20040;-72
2022/12/30 03:34:26;;;;;;;26.10;5.18;;;6.70;99.90;;;;;;5060921;28;20033;-73
2022/12/30 03:36:59;;;;;;;33.38;5.00;;;6.70;99.90;;;;;;5043468;28;20025;-73
2022/12/30 03:39:33;;;;;;;21.63;4.80;;;6.60;99.90;;;;;;5060488;28;20048;-71
2022/12/30 03:41:59;;;;;;;26.02;5.18;;;6.60;99.90;;;;;;5060687;28;20030;-70
2022/12/30 03:44:25;;;;;;;19.13;4.32;;;6.50;99.90;;;;;;5060375;28;20103;-72
2022/12/30 03:46:51;;;;;;;24.35;4.88;;;6.50;99.90;;;;;;5043108;28;20024;-72
2022/12/30 03:49:18;;;;;;;24.92;4.90;;;6.50;99.90;;;;;;5059951;28;20029;-76
2022/12/30 03:51:44;;;;;;;25.83;5.20;;;6.50;99.90;;;;;;5042590;28;20056;-70
2022/12/30 03:54:09;;;;;;;33.33;5.25;;;6.50;99.90;;;;;;5060389;28;20032;-73
2022/12/30 03:56:35;;;;;;;26.25;4.68;;;6.50;99.90;;;;;;5060054;28;20037;-71
2022/12/30 03:59:01;;;;;;;29.23;4.97;;;6.40;99.90;;;;;;5042991;28;20013;-71
2022/12/30 04:01:26;;;;;;;23.45;4.85;;;6.40;99.90;;;;;;5060283;28;20044;-72
2022/12/30 04:03:52;;;;;;;27.15;5.05;;;6.40;99.90;;;;;;5042408;28;20025;-70
2022/12/30 04:06:17;;;;;;;23.35;5.15;;;6.40;99.90;;;;;;5042810;28;20059;-71
2022/12/30 04:08:43;;;;;;;25.42;5.65;;;6.40;99.90;;;;;;5059780;28;20773;-71
2022/12/30 04:11:08;;;;;;;22.27;5.03;;;6.30;99.90;;;;;;5059298;28;20021;-70
2022/12/30 04:13:34;;;;;;;28.83;5.28;;;6.30;99.90;;;;;;5059983;28;20029;-69
2022/12/30 04:16:00;;;;;;;24.63;5.63;;;6.30;99.90;;;;;;5060134;28;20040;-72
2022/12/30 04:18:27;;;;;;;19.92;6.00;;;6.30;99.90;;;;;;5042699;28;20563;-68
2022/12/30 04:20:53;;;;;;;23.50;5.80;;;6.30;99.90;;;;;;5059337;28;20086;-71
2022/12/30 04:23:18;;;;;;;16.40;5.10;;;6.20;99.90;;;;;;5042488;28;20029;-72
2022/12/30 04:25:44;;;;;;;24.30;6.30;;;6.20;99.90;;;;;;5059741;28;20029;-71
2022/12/30 04:28:16;;;;;;;28.90;5.63;;;6.20;99.90;;;;;;5059192;28;20013;-71
2022/12/30 04:30:41;;;;;;;26.90;5.78;;;6.20;99.90;;;;;;5059728;28;20048;-68
2022/12/30 04:33:07;;;;;;;28.60;6.00;;;6.20;99.90;;;;;;5041855;28;20021;-71
2022/12/30 04:35:32;;;;;;;29.50;5.90;;;6.20;99.90;;;;;;5059672;28;20021;-71
2022/12/30 04:37:59;;;;;;;23.40;6.45;;;6.20;99.90;;;;;;5041136;28;20059;-72
2022/12/30 04:40:24;;;;;;;21.40;5.28;;;6.10;99.90;;;;;;5059771;28;20068;-72
2022/12/30 04:42:50;;;;;;;25.42;5.03;;;6.10;99.90;;;;;;5058814;28;20376;-72
2022/12/30 04:45:16;;;;;;;29.15;5.63;;;6.10;99.90;;;;;;5059345;28;20029;-70
2022/12/30 04:47:41;;;;;;;30.63;6.03;;;6.20;99.90;;;;;;5041290;28;20024;-70
2022/12/30 04:50:07;;;;;;;29.95;6.28;;;6.10;99.90;;;;;;5059452;28;20032;-73
2022/12/30 04:52:34;;;;;;;35.45;7.15;;;6.10;99.90;;;;;;5058899;28;20032;-70
2022/12/30 04:54:59;;;;;;;27.58;5.80;;;6.10;99.90;;;;;;5042027;28;20025;-71
2022/12/30 04:57:25;;;;;;;22.63;5.93;;;6.10;99.90;;;;;;5059438;28;20033;-72
2022/12/30 04:59:51;;;;;;;25.38;6.97;;;6.10;99.90;;;;;;5059116;28;20541;-72
2022/12/30 05:02:16;;;;;;;31.52;6.75;;;6.10;99.90;;;;;;5059394;28;20077;-73
2022/12/30 05:04:42;;;;;;;29.15;6.32;;;6.10;99.90;;;;;;5041426;28;20021;-70
2022/12/30 05:07:08;;;;;;;28.02;6.45;;;6.00;99.90;;;;;;5059172;28;20047;-72
2022/12/30 05:09:33;;;;;;;25.88;6.70;;;6.00;99.90;;;;;;5059151;28;20028;-74
2022/12/30 05:12:00;;;;;;;27.48;6.45;;;5.90;99.90;;;;;;5059042;28;20072;-72
2022/12/30 05:14:25;;;;;;;23.00;6.18;;;6.00;99.90;;;;;;5042006;28;20615;-73
2022/12/30 05:16:51;;;;;;;27.63;6.57;;;5.90;99.90;;;;;;5058975;28;20113;-74
2022/12/30 05:19:16;;;;;;;38.03;7.25;;;5.80;99.90;;;;;;5058502;28;20082;-73
2022/12/30 05:21:42;;;;;;;30.30;7.88;;;5.90;99.90;;;;;;5058325;28;20362;-73
2022/12/30 05:27:07;;;;;;;23.08;7.00;;;5.70;99.90;;;;;;5027899;28;20045;-72
2022/12/30 05:29:32;;;;;;;28.13;7.75;;;5.70;99.90;;;;;;5049044;28;20035;-73
2022/12/30 05:31:58;;;;;;;34.85;7.47;;;5.70;99.90;;;;;;5040566;28;20494;-74
2022/12/30 05:34:24;;;;;;;24.77;7.13;;;5.60;99.90;;;;;;5059109;28;20044;-71
2022/12/30 05:36:49;;;;;;;35.17;7.90;;;5.60;99.90;;;;;;5059137;28;20088;-74
2022/12/30 05:39:15;;;;;;;35.67;7.57;;;5.60;99.90;;;;;;5058597;28;20025;-72
2022/12/30 05:41:41;;;;;;;24.95;7.63;;;5.60;99.90;;;;;;5058349;28;20484;-74
2022/12/30 05:44:10;;;;;;;20.40;7.25;;;5.60;99.90;;;;;;5045221;28;20017;-72
2022/12/30 05:46:36;;;;;;;26.17;6.78;;;5.60;99.90;;;;;;5044145;28;20028;-74
2022/12/30 05:49:01;;;;;;;26.55;6.68;;;5.50;99.90;;;;;;5060159;28;20039;-73
2022/12/30 05:51:27;;;;;;;25.58;5.75;;;5.60;99.90;;;;;;5035741;28;20482;-72
2022/12/30 05:53:53;;;;;;;29.48;7.47;;;5.50;99.90;;;;;;5059129;28;20021;-74
2022/12/30 05:56:18;;;;;;;29.67;7.57;;;5.50;99.90;;;;;;5056399;28;20035;-73
2022/12/30 05:58:44;;;;;;;38.70;7.85;;;5.50;99.90;;;;;;5061651;28;20029;-74
2022/12/30 06:01:09;;;;;;;27.33;8.38;;;5.50;99.90;;;;;;5054377;28;20064;-74
2022/12/30 06:03:35;;;;;;;30.40;7.00;;;5.50;99.90;;;;;;5059944;28;20033;-73
2022/12/30 06:06:04;;;;;;;32.47;7.63;;;5.40;99.90;;;;;;5052739;28;20106;-75
2022/12/30 06:08:31;;;;;;;21.25;6.45;;;5.40;99.90;;;;;;5043576;28;20102;-72
2022/12/30 06:10:57;;;;;;;33.47;7.90;;;5.40;99.90;;;;;;5053713;28;20044;-75
2022/12/30 06:13:23;;;;;;;20.83;6.68;;;5.40;99.90;;;;;;5044130;28;20033;-74
2022/12/30 06:15:48;;;;;;;29.48;6.97;;;5.30;99.90;;;;;;5044305;28;20029;-75
2022/12/30 06:18:14;;;;;;;24.55;6.70;;;5.30;99.90;;;;;;5058622;28;20028;-74
2022/12/30 06:20:39;;;;;;;20.27;6.30;;;5.30;99.90;;;;;;5054812;28;20028;-71
2022/12/30 06:23:05;;;;;;;30.02;7.00;;;5.20;99.90;;;;;;5052859;28;20044;-71
2022/12/30 06:25:34;;;;;;;25.75;6.60;;;5.20;99.90;;;;;;5053412;28;20033;-71
2022/12/30 06:28:00;;;;;;;33.92;7.65;;;5.20;99.90;;;;;;5051912;28;20033;-72
2022/12/30 06:30:25;;;;;;;38.45;7.63;;;5.20;99.90;;;;;;5034996;28;20059;-71
2022/12/30 06:32:54;;;;;;;28.55;7.32;;;5.20;99.90;;;;;;5039259;28;20067;-71
2022/12/30 06:35:19;;;;;;;18.70;6.78;;;5.00;99.90;;;;;;5057644;28;20028;-72
2022/12/30 06:37:46;;;;;;;29.88;8.43;;;5.10;99.90;;;;;;5048245;28;20084;-72
2022/12/30 06:40:12;;;;;;;21.60;7.35;;;5.10;99.90;;;;;;5056768;28;20013;-71
2022/12/30 06:42:37;;;;;;;27.50;6.72;;;5.10;99.90;;;;;;5052457;28;20036;-72
2022/12/30 06:45:04;;;;;;;22.33;7.03;;;5.10;99.90;;;;;;5055574;28;20025;-72
2022/12/30 06:47:30;;;;;;;30.92;6.88;;;5.00;99.90;;;;;;5051935;28;20025;-72
2022/12/30 06:49:57;;;;;;;30.30;7.35;;;5.00;99.90;;;;;;5050327;28;20059;-71
2022/12/30 06:52:23;;;;;;;25.67;6.88;;;5.00;99.90;;;;;;5050047;28;20057;-72
2022/12/30 06:54:48;;;;;;;18.20;6.00;;;5.10;99.90;;;;;;5055197;28;20039;-71
2022/12/30 06:57:14;;;;;;;25.20;7.15;;;5.00;99.90;;;;;;5053600;28;20033;-70
2022/12/30 06:59:39;;;;;;;21.90;6.68;;;4.90;99.90;;;;;;5060048;28;20025;-70
2022/12/30 07:02:05;;;;;;;22.05;6.55;;;5.00;99.90;;;;;;5058304;28;20049;-70
2022/12/30 07:04:31;;;;;;;27.80;7.95;;;4.90;99.90;;;;;;5050357;28;20029;-71
2022/12/30 07:06:57;;;;;;;29.85;8.10;;;4.90;99.90;;;;;;5051382;28;20033;-73
2022/12/30 07:09:23;;;;;;;32.35;7.35;;;4.90;99.90;;;;;;5054133;28;20088;-72
2022/12/30 07:11:49;;;;;;;30.92;9.02;;;4.90;99.90;;;;;;5055648;28;20045;-71
2022/12/30 07:14:14;;;;;;;31.42;7.93;;;4.80;99.90;;;;;;5059209;28;20087;-72
2022/12/30 07:16:40;;;;;;;23.92;6.90;;;4.90;99.90;;;;;;5048652;28;20047;-71
2022/12/30 07:19:05;;;;;;;33.10;7.72;;;4.90;99.90;;;;;;5052790;28;20033;-72
2022/12/30 07:21:32;;;;;;;32.63;7.50;;;4.80;99.90;;;;;;5060153;28;20049;-72
2022/12/30 07:23:58;;;;;;;35.42;6.57;;;4.80;99.90;;;;;;5048992;28;20029;-71
2022/12/30 07:26:24;;;;;;;37.47;6.47;;;4.80;99.90;;;;;;5050452;28;20059;-71
2022/12/30 07:28:51;;;;;;;30.60;6.68;;;4.90;99.90;;;;;;5051517;28;20033;-71
2022/12/30 07:31:17;;;;;;;24.52;4.68;;;4.80;99.90;;;;;;5036996;28;21051;-72
2022/12/30 07:33:42;;;;;;;20.77;5.95;;;4.90;99.90;;;;;;5053932;28;20036;-72
2022/12/30 07:36:08;;;;;;;27.63;5.95;;;4.90;99.90;;;;;;5041939;28;20033;-72
2022/12/30 07:38:34;;;;;;;26.92;6.30;;;4.90;99.90;;;;;;5057920;28;20025;-72
2022/12/30 07:41:00;;;;;;;23.15;6.13;;;5.00;99.90;;;;;;5051057;28;20021;-70
2022/12/30 07:43:26;;;;;;;34.97;5.35;;;4.90;99.90;;;;;;5051386;28;21303;-70
2022/12/30 07:45:52;;;;;;;26.80;5.78;;;5.00;99.90;;;;;;5052802;28;20025;-70
2022/12/30 07:48:17;;;;;;;23.15;4.88;;;5.00;99.90;;;;;;5036477;28;20393;-71
2022/12/30 07:50:43;;;;;;;22.15;4.63;;;5.10;99.90;;;;;;5041233;28;20033;-72
2022/12/30 07:53:08;;;;;;;21.65;4.60;;;5.00;99.90;;;;;;5050194;28;20037;-70
2022/12/30 07:55:38;;;;;;;26.10;4.93;;;5.00;99.90;;;;;;5051884;28;20091;-71
2022/12/30 07:58:04;;;;;;;21.80;5.05;;;5.00;99.90;;;;;;5037520;28;20028;-74
2022/12/30 08:00:30;;;;;;;37.05;6.60;;;5.10;99.90;;;;;;5053942;28;20059;-73
2022/12/30 08:02:56;;;;;;;23.60;5.25;;;5.00;99.90;;;;;;5060195;28;20028;-72
2022/12/30 08:05:22;;;;;;;20.50;5.78;;;5.00;99.90;;;;;;5052854;28;21209;-72
2022/12/30 08:07:50;;;;;;;27.23;5.97;;;5.10;99.90;;;;;;5045582;28;20081;-72
2022/12/30 08:10:16;;;;;;;25.00;5.20;;;5.10;99.90;;;;;;5052211;28;20025;-71
2022/12/30 08:12:41;;;;;;;30.20;5.70;;;5.20;99.90;;;;;;5044407;28;20037;-72
2022/12/30 08:15:07;;;;;;;29.67;5.45;;;5.30;99.90;;;;;;5050426;28;20044;-71
2022/12/30 08:17:33;;;;;;;21.52;4.22;;;5.30;99.90;;;;;;5050135;28;20042;-70
2022/12/30 08:19:58;;;;;;;27.20;4.78;;;5.50;99.90;;;;;;5055624;28;20021;-71
2022/12/30 08:22:24;;;;;;;26.77;4.97;;;5.80;99.90;;;;;;5045778;28;20041;-70
2022/12/30 08:24:49;;;;;;;22.63;4.78;;;5.80;99.90;;;;;;5056916;28;20060;-72
2022/12/30 08:27:15;;;;;;;25.83;5.20;;;6.00;99.90;;;;;;5058129;28;20029;-72
2022/12/30 08:29:40;;;;;;;27.85;4.75;;;6.10;99.90;;;;;;5057493;28;20112;-71
2022/12/30 08:32:06;;;;;;;20.80;5.15;;;6.20;99.90;;;;;;5057646;28;20485;-70
2022/12/30 08:34:33;;;;;;;19.30;5.18;;;6.20;99.90;;;;;;5058123;28;20048;-72
2022/12/30 08:36:59;;;;;;;23.80;5.00;;;6.30;99.90;;;;;;5058168;28;20087;-71
2022/12/30 08:39:25;;;;;;;19.73;4.55;;;6.30;99.90;;;;;;5053385;28;20024;-71
2022/12/30 08:41:50;;;;;;;19.33;4.32;;;6.30;99.90;;;;;;5050386;28;20025;-71
2022/12/30 08:44:16;;;;;;;28.20;4.65;;;6.30;99.90;;;;;;5037398;28;20096;-71
2022/12/30 08:46:42;;;;;;;21.63;4.20;;;6.30;99.90;;;;;;5049176;28;20036;-71
2022/12/30 08:49:10;;;;;;;24.75;4.90;;;6.30;99.90;;;;;;5048619;28;20032;-72
2022/12/30 08:51:36;;;;;;;20.67;4.72;;;6.40;99.90;;;;;;5054416;28;20055;-72
2022/12/30 08:54:03;;;;;;;24.92;4.82;;;6.50;99.90;;;;;;5054818;28;20029;-73
2022/12/30 08:56:32;;;;;;;25.67;5.43;;;6.50;99.90;;;;;;5052393;28;20038;-72
2022/12/30 08:58:59;;;;;;;19.42;4.68;;;6.50;99.90;;;;;;5049736;28;20438;-73
2022/12/30 09:01:30;;;;;;;32.78;5.43;;;6.50;99.90;;;;;;5053225;28;20021;-72
2022/12/30 09:03:57;;;;;;;15.48;4.38;;;6.50;99.90;;;;;;5050264;28;20025;-72
2022/12/30 09:06:26;;;;;;;22.80;5.05;;;6.50;99.90;;;;;;5039474;28;20021;-71
2022/12/30 09:08:53;;;;;;;23.90;4.50;;;6.50;99.90;;;;;;5060637;28;20053;-71
2022/12/30 09:11:22;;;;;;;24.02;5.18;;;6.50;99.90;;;;;;5051097;28;20056;-71
2022/12/30 09:13:48;;;;;;;26.05;4.75;;;6.40;99.90;;;;;;5050943;28;20033;-71
2022/12/30 09:16:17;;;;;;;19.50;4.75;;;6.40;99.90;;;;;;5049178;28;20037;-71
2022/12/30 09:18:43;;;;;;;14.35;3.83;;;6.30;99.90;;;;;;5054257;28;20029;-72
2022/12/30 09:21:09;;;;;;;21.80;4.18;;;6.30;99.90;;;;;;5052264;28;20132;-71
2022/12/30 09:23:41;;;;;;;20.55;3.67;;;6.40;99.90;;;;;;5047250;28;20073;-73
2022/12/30 09:26:08;;;;;;;16.48;3.85;;;6.40;99.90;;;;;;5055660;28;20064;-72
2022/12/30 09:28:35;;;;;;;13.98;3.13;;;6.50;99.90;;;;;;5051592;28;20044;-71
2022/12/30 09:31:02;;;;;;;15.77;3.35;;;6.50;99.90;;;;;;5054653;28;21677;-70
2022/12/30 09:33:27;;;;;;;25.98;3.15;;;6.50;99.90;;;;;;5043963;28;20037;-73
2022/12/30 09:35:53;;;;;;;13.73;2.85;;;6.60;99.90;;;;;;5055683;28;20061;-70
2022/12/30 09:38:19;;;;;;;18.40;3.25;;;6.60;99.90;;;;;;5047281;28;20059;-71
2022/12/30 09:41:04;;;;;;;13.27;3.00;;;6.70;99.90;;;;;;5061279;28;20036;-71
2022/12/30 09:43:51;;;;;;;23.08;3.17;;;6.80;99.90;;;;;;5060937;28;20025;-69
2022/12/30 09:46:48;;;;;;;20.33;3.75;;;6.90;99.90;;;;;;5050720;28;20036;-70
2022/12/30 09:49:16;;;;;;;19.83;3.40;;;7.00;99.90;;;;;;5062264;28;20052;-69
2022/12/30 09:51:50;;;;;;;16.27;3.63;;;7.10;99.90;;;;;;5061636;28;20041;-71
2022/12/30 09:54:21;;;;;;;15.68;3.13;;;7.10;99.90;;;;;;5062130;28;20039;-70
2022/12/30 09:56:49;;;;;;;16.38;3.38;;;7.10;99.90;;;;;;5059966;28;20072;-71
2022/12/30 09:59:32;;;;;;;21.67;3.33;;;7.10;99.90;;;;;;5060902;28;20025;-70
2022/12/30 10:02:13;;;;;;;10.43;2.60;;;7.20;99.90;;;;;;5058954;28;20029;-72
2022/12/30 10:04:39;;;;;;;21.33;3.22;;;7.30;99.90;;;;;;5055003;28;20127;-71
2022/12/30 10:07:07;;;;;;;17.02;4.10;;;7.20;99.90;;;;;;5052410;28;20032;-69
2022/12/30 10:09:52;;;;;;;17.02;2.85;;;7.20;99.90;;;;;;5052911;28;20029;-70
2022/12/30 10:12:34;;;;;;;;;;;7.10;99.90;;;;;;5053643;28;20086;-70
2022/12/30 10:15:29;;;;;;;15.70;2.85;;;7.10;99.90;;;;;;5054428;28;19917;-70
2022/12/30 10:18:18;;;;;;;17.98;2.53;;;7.10;99.90;;;;;;5054024;28;20034;-70
2022/12/30 10:21:03;;;;;;;19.83;2.95;;;7.00;99.90;;;;;;5041711;28;20029;-77
2022/12/30 10:23:47;;;;;;;;;;;7.20;99.90;;;;;;5054983;28;20045;-69
2022/12/30 10:26:18;;;;;;;12.43;2.90;;;7.10;99.90;;;;;;5041235;28;19905;-69
2022/12/30 10:29:00;;;;;;;15.73;2.75;;;7.20;99.90;;;;;;5050735;28;20052;-71
2022/12/30 10:31:29;;;;;;;17.55;2.85;;;7.10;99.90;;;;;;5052846;28;20037;-72
2022/12/30 10:34:20;;;;;;;25.35;3.10;;;7.10;99.90;;;;;;5061185;28;20036;-72
2022/12/30 10:37:00;;;;;;;12.55;2.30;;;7.10;99.90;;;;;;5049074;28;20038;-71
2022/12/30 10:39:56;;;;;;;13.95;2.65;;;7.10;99.90;;;;;;5044042;28;20028;-70
2022/12/30 10:42:56;;;;;;;12.90;2.80;;;7.10;99.90;;;;;;5058623;28;20045;-71
2022/12/30 10:45:25;;;;;;;8.25;2.03;;;7.10;99.90;;;;;;5043211;28;20573;-71
2022/12/30 10:48:20;;;;;;;11.90;2.53;;;7.10;99.90;;;;;;5042775;28;20029;-73
2022/12/30 10:50:47;;;;;;;15.32;2.33;;;7.10;99.90;;;;;;5052550;28;20040;-71
2022/12/30 10:53:17;;;;;;;19.30;2.50;;;7.10;99.90;;;;;;5044152;28;20087;-72
2022/12/30 10:55:54;;;;;;;12.70;2.35;;;7.00;99.90;;;;;;5059046;28;20528;-71
2022/12/30 10:58:24;;;;;;;18.00;2.45;;;7.00;99.90;;;;;;5049897;28;20064;-69
2022/12/30 11:00:50;;;;;;;7.55;1.92;;;7.00;99.90;;;;;;5059119;28;20040;-70
2022/12/30 11:03:31;;;;;;;7.05;1.90;;;7.10;99.90;;;;;;5060562;28;20029;-69
2022/12/30 11:05:57;;;;;;;14.60;2.08;;;7.10;99.90;;;;;;5044144;28;20414;-70
2022/12/30 11:08:28;;;;;;;15.10;3.03;;;7.10;99.90;;;;;;5060369;28;20033;-70
2022/12/30 11:11:03;;;;;;;21.92;2.58;;;7.10;99.90;;;;;;5060678;28;20039;-69
2022/12/30 11:16:15;;;;;;;;;;;7.10;99.90;;;;;;5060038;28;20067;-70
2022/12/30 11:18:45;;;;;;;7.75;2.00;;;7.10;99.90;;;;;;5060030;28;19911;-68
2022/12/30 11:21:10;;;;;;;7.13;2.50;;;7.10;99.90;;;;;;5056179;28;20065;-69
2022/12/30 11:23:38;;;;;;;15.82;2.25;;;7.10;99.90;;;;;;5046674;28;20083;-72
2022/12/30 11:26:16;;;;;;;13.65;2.40;;;7.20;99.90;;;;;;5059188;28;20018;-69
2022/12/30 11:28:51;;;;;;;12.32;1.70;;;7.20;99.90;;;;;;5055185;28;20044;-70
2022/12/30 11:31:17;;;;;;;10.23;2.35;;;7.20;99.90;;;;;;5046005;28;20040;-70
2022/12/30 11:33:50;;;;;;;10.40;2.10;;;7.20;99.90;;;;;;5029609;28;20033;-70
2022/12/30 11:36:21;;;;;;;14.80;2.22;;;7.30;99.90;;;;;;5052469;28;20029;-69
2022/12/30 11:38:51;;;;;;;12.73;2.03;;;7.30;99.90;;;;;;5052769;28;20021;-70
2022/12/30 11:41:16;;;;;;;12.18;2.88;;;7.30;99.90;;;;;;5051663;28;20024;-71
2022/12/30 11:43:47;;;;;;;10.35;2.33;;;7.40;99.90;;;;;;5050438;28;20028;-69
2022/12/30 11:46:18;;;;;;;15.30;2.53;;;7.40;99.90;;;;;;5050790;28;20025;-70
2022/12/30 11:48:54;;;;;;;10.75;2.22;;;7.50;99.90;;;;;;5054622;28;20029;-70
2022/12/30 11:51:23;;;;;;;14.52;4.72;;;7.60;99.90;;;;;;5041781;28;20113;-70
2022/12/30 11:54:00;;;;;;;17.23;3.22;;;7.70;99.90;;;;;;5041286;28;20037;-71
2022/12/30 11:56:26;;;;;;;10.55;2.42;;;7.80;99.90;;;;;;5050742;28;20025;-69
2022/12/30 11:58:53;;;;;;;17.13;2.30;;;7.90;99.90;;;;;;5050056;28;20028;-69
2022/12/30 12:01:18;;;;;;;23.10;4.13;;;8.00;99.90;;;;;;5052330;28;20032;-70
2022/12/30 12:03:50;;;;;;;8.18;3.38;;;8.10;99.90;;;;;;5058627;28;20025;-70
2022/12/30 12:06:15;;;;;;;13.15;4.18;;;8.20;99.90;;;;;;5058039;28;20041;-70
2022/12/30 12:08:58;;;;;;;16.30;5.03;;;8.20;99.90;;;;;;5058926;28;20124;-70
2022/12/30 12:11:32;;;;;;;10.05;2.40;;;8.20;99.90;;;;;;5058913;28;20033;-70
2022/12/30 12:14:14;;;;;;;14.05;4.45;;;8.10;99.90;;;;;;5058541;28;20024;-71
2022/12/30 12:16:52;;;;;;;11.15;3.42;;;8.10;99.90;;;;;;5051917;28;20040;-71
2022/12/30 12:19:42;;;;;;;9.88;2.15;;;8.00;99.90;;;;;;5046967;28;20494;-69
2022/12/30 12:22:26;;;;;;;7.28;1.80;;;8.00;99.90;;;;;;5049161;28;20044;-70
2022/12/30 12:24:59;;;;;;;11.30;4.27;;;7.90;99.90;;;;;;5057616;28;20048;-70
2022/12/30 12:27:26;;;;;;;18.15;3.67;;;7.90;99.90;;;;;;5057541;28;20017;-70
2022/12/30 12:29:55;;;;;;;12.77;2.80;;;7.90;99.90;;;;;;5056776;28;20032;-69
2022/12/30 12:32:45;;;;;;;11.45;3.17;;;7.90;99.90;;;;;;5056898;28;20036;-70
2022/12/30 12:35:21;;;;;;;8.98;3.25;;;7.80;99.90;;;;;;5057235;28;20120;-71
2022/12/30 12:38:11;;;;;;;11.95;3.50;;;7.80;99.90;;;;;;5057262;28;20035;-70
2022/12/30 12:41:05;;;;;;;11.95;4.30;;;7.70;99.90;;;;;;5056380;28;20029;-71
2022/12/30 12:44:05;;;;;;;12.95;2.90;;;7.70;99.90;;;;;;5055239;28;20025;-69
2022/12/30 12:46:52;;;;;;;9.95;2.70;;;7.60;99.90;;;;;;5046512;28;20104;-72
2022/12/30 12:49:47;;;;;;;15.50;2.72;;;7.60;99.90;;;;;;5056707;28;20036;-71
2022/12/30 12:52:38;;;;;;;8.95;2.20;;;7.60;99.90;;;;;;5057857;28;20036;-69
2022/12/30 12:55:37;;;;;;;5.75;1.13;;;7.50;99.90;;;;;;5038661;28;20021;-72
2022/12/30 12:58:15;;;;;;;14.30;3.33;;;7.50;99.90;;;;;;5031930;28;20049;-71
2022/12/30 13:01:15;;;;;;;14.65;2.63;;;7.40;99.90;;;;;;5048404;28;20033;-72
2022/12/30 13:04:22;;;;;;;8.00;2.55;;;7.40;99.90;;;;;;5051323;28;20322;-71
2022/12/30 13:07:13;;;;;;;8.52;2.22;;;7.40;99.90;;;;;;5014084;28;20022;-71
2022/12/30 13:10:02;;;;;;;12.27;2.70;;;7.40;99.90;;;;;;5016344;28;20104;-70
2022/12/30 13:12:43;;;;;;;11.75;1.85;;;7.30;99.90;;;;;;5040180;28;20132;-70
2022/12/30 13:15:26;;;;;;;5.78;2.10;;;7.30;99.90;;;;;;5043609;28;20021;-70
2022/12/30 13:17:56;;;;;;;18.75;2.40;;;7.30;99.90;;;;;;5047385;28;20025;-70
2022/12/30 13:20:41;;;;;;;10.23;2.17;;;7.30;99.90;;;;;;5051371;28;20017;-69
2022/12/30 13:23:10;;;;;;;9.60;1.63;;;7.30;99.90;;;;;;5049121;28;20042;-70
2022/12/30 13:25:44;;;;;;;11.90;2.20;;;7.30;99.90;;;;;;5048760;28;20025;-70
2022/12/30 13:28:23;;;;;;;9.82;1.92;;;7.30;99.90;;;;;;5051363;28;20047;-71
2022/12/30 13:30:59;;;;;;;7.78;2.10;;;7.30;99.90;;;;;;5051222;28;20033;-70
2022/12/30 13:33:28;;;;;;;8.00;2.90;;;7.30;99.90;;;;;;5050902;28;20093;-71
2022/12/30 13:36:14;;;;;;;5.15;2.33;;;7.30;99.90;;;;;;5050261;28;20108;-72
2022/12/30 13:39:12;;;;;;;10.30;2.30;;;7.30;99.90;;;;;;5054595;28;20052;-71
2022/12/30 13:42:25;;;;;;;16.52;2.63;;;7.30;99.90;;;;;;5003805;28;20120;-70
2022/12/30 13:44:51;;;;;;;9.43;2.38;;;7.20;99.90;;;;;;5052171;28;20114;-72
2022/12/30 13:47:36;;;;;;;16.17;3.63;;;7.20;99.90;;;;;;5057387;28;20536;-69
2022/12/30 13:50:15;;;;;;;8.30;2.80;;;7.20;99.90;;;;;;5042286;28;20036;-70
2022/12/30 13:52:50;;;;;;;9.48;2.50;;;7.30;99.90;;;;;;5054624;28;20087;-68
2022/12/30 13:55:48;;;;;;;10.30;2.58;;;7.30;99.90;;;;;;5057265;28;20030;-70
2022/12/30 13:58:46;;;;;;;8.30;2.08;;;7.30;99.90;;;;;;5051250;28;20021;-70
2022/12/30 14:01:18;;;;;;;16.70;2.92;;;7.30;99.90;;;;;;5038874;28;20022;-72